Evansville Regional Airport
KEVV : rendu visible

Aérodrome :











RETROUVEZ-NOUS SUR...

 
LOGIN :

S'inscrire | Disclaimer

   EN    FR    IT 

 









Légende :    VFR   VFR Marginal   IFR   IFR Intensif   IFR Très Intensif
Visi : 
Plafond : 
>= 8 km
>= 3000ft
5 à 8 km
1000 à 3000 ft
1500m à 5 km
500 à 1000 ft
800 à 1500m
200 à 500 ft
< 800m
< 200 ft
Symboles :   Orages  Brouillard  Fortes neiges  Fortes précipitations  Vent > 20 kt






- Altitude de l'aérodrome : 418 ft
- Code IATA : EVV


KEVV - Evansville Regional

DERNIER METAR :
  • 301554Z 05008G15KT 10SM SCT040 21/11 A3018 RMK AO2 SLP215 T02060106

METARs EXPIRÉS :
  • 301454Z 35007KT 10SM CLR 21/11 A3018 RMK AO2 SLP216 T02060111 50007
  • 301354Z 03005KT 10SM CLR 19/12 A3018 RMK AO2 SLP217 T01940117

TAF KEVV
Valide du 30 à 12h jusqu'au 31 à 12h UTC


301120Z 3012/3112 35006KT P6SM FEW250
FM310100 VRB04KT P6SM FEW250
FIR KZID / Amérique du Nord



MET'MAP, la Météo Aéronautique d'un coup d'oeil ! - Copyright ORBIFLY Décembre 2007 - Disclaimer

ORBIFLY MET'MAP TEAM :

Programmation & Développement : Alexandra Zaïnal
Sur une idée originale de : Baudouin d'Aumeries
Assistance à la programmation : Marc-Olivier Méhu
Soutien technique & logistique : Manuel Goepfert

Contact : metmap@orbifly.com




SOURCES & CREDITS :

   NOAA       Earth
Advisory